Time;durP1;ratioP1;P1;durP2;ratioP2;P2;SDS_P1;SDS_P2;PMS_P1;PMS_P2;Temp;Humidity;BMP_temperature;BMP_pressure;BME280_temperature;BME280_humidity;BME280_pressure;Samples;Min_cycle;Max_cycle;Signal;HPM_P1;HPM_P2
2023/06/04 00:01:55;;;;;;;8.48;4.05;;;16.90;99.90;;;;;;4895952;29;20092;-74
2023/06/04 00:07:19;;;;;;;11.15;4.88;;;16.80;99.90;;;;;;4987493;23;20147;-76
2023/06/04 00:09:46;;;;;;;9.98;5.88;;;16.80;99.90;;;;;;4899332;29;20029;-77
2023/06/04 00:12:12;;;;;;;9.57;4.13;;;16.70;99.90;;;;;;4899302;29;20017;-73
2023/06/04 00:14:38;;;;;;;10.80;5.20;;;16.70;99.90;;;;;;4897819;29;20024;-75
2023/06/04 00:17:04;;;;;;;13.13;3.95;;;16.60;99.90;;;;;;4898297;29;20495;-74
2023/06/04 00:19:30;;;;;;;7.55;3.22;;;16.60;99.90;;;;;;4895581;29;20025;-77
2023/06/04 00:21:56;;;;;;;12.27;4.38;;;16.50;99.90;;;;;;4895493;29;20433;-76
2023/06/04 00:24:22;;;;;;;7.97;3.65;;;16.50;99.90;;;;;;4896304;29;20021;-75
2023/06/04 00:26:48;;;;;;;9.45;4.43;;;16.40;99.90;;;;;;4883623;29;20040;-73
2023/06/04 00:29:14;;;;;;;12.00;4.40;;;16.40;99.90;;;;;;4895676;29;20048;-74
2023/06/04 00:31:40;;;;;;;11.90;4.13;;;16.40;99.90;;;;;;4895844;29;20369;-77
2023/06/04 00:34:06;;;;;;;9.70;4.72;;;16.30;99.90;;;;;;4895323;29;20049;-77
2023/06/04 00:36:32;;;;;;;9.57;4.60;;;16.30;99.90;;;;;;4895489;29;20021;-76
2023/06/04 00:38:57;;;;;;;10.30;4.03;;;16.30;99.90;;;;;;4895170;29;20028;-76
2023/06/04 00:41:23;;;;;;;12.13;4.90;;;16.20;99.90;;;;;;4896404;29;20388;-74
2023/06/04 00:43:55;;;;;;;9.88;4.03;;;16.30;99.90;;;;;;4895424;29;20111;-74
2023/06/04 00:46:26;;;;;;;9.65;4.80;;;16.30;99.90;;;;;;4895313;29;20032;-74
2023/06/04 00:48:56;;;;;;;13.68;5.22;;;16.20;99.90;;;;;;4895302;29;20488;-76
2023/06/04 00:51:23;;;;;;;7.30;3.72;;;16.30;99.90;;;;;;4878535;29;20028;-75
2023/06/04 00:53:50;;;;;;;7.45;4.35;;;16.20;99.90;;;;;;4895439;29;20028;-76
2023/06/04 00:56:16;;;;;;;10.35;4.82;;;16.30;99.90;;;;;;4895333;29;20033;-74
2023/06/04 00:58:45;;;;;;;12.13;4.65;;;16.20;99.90;;;;;;4878567;29;20033;-73
2023/06/04 01:01:37;;;;;;;9.95;5.05;;;16.20;99.90;;;;;;4878562;29;20029;-73
2023/06/04 01:04:04;;;;;;;12.33;4.80;;;16.20;99.90;;;;;;4895214;29;20048;-77
2023/06/04 01:06:41;;;;;;;8.18;3.95;;;16.10;99.90;;;;;;4878533;29;20028;-75
2023/06/04 01:09:07;;;;;;;8.07;4.60;;;16.20;99.90;;;;;;4895100;29;20409;-77
2023/06/04 01:11:37;;;;;;;8.60;4.40;;;16.10;99.90;;;;;;4895006;29;20021;-73
2023/06/04 01:14:08;;;;;;;14.25;4.68;;;16.00;99.90;;;;;;4895498;29;20063;-76
2023/06/04 01:16:50;;;;;;;12.45;5.18;;;15.90;99.90;;;;;;4895592;29;20378;-76
2023/06/04 01:19:44;;;;;;;8.60;4.88;;;15.90;99.90;;;;;;4878162;29;20036;-76
2023/06/04 01:22:43;;;;;;;9.10;4.25;;;15.70;99.90;;;;;;4896455;29;20039;-77
2023/06/04 01:25:23;;;;;;;7.85;4.30;;;15.70;99.90;;;;;;4898958;29;20036;-75
2023/06/04 01:27:57;;;;;;;11.43;4.78;;;15.70;99.90;;;;;;4898722;29;20037;-73
2023/06/04 01:30:31;;;;;;;7.35;4.03;;;15.70;99.90;;;;;;4898614;29;20079;-75
2023/06/04 01:32:58;;;;;;;13.20;4.72;;;15.70;99.90;;;;;;4869120;29;20053;-75
2023/06/04 01:35:26;;;;;;;11.32;4.72;;;15.70;99.90;;;;;;4896410;29;20054;-73
2023/06/04 01:37:52;;;;;;;8.43;4.55;;;15.70;99.90;;;;;;4901984;29;20095;-72
2023/06/04 01:40:18;;;;;;;15.00;4.53;;;15.70;99.90;;;;;;4901812;29;20032;-74
2023/06/04 01:42:44;;;;;;;9.90;4.43;;;15.70;99.90;;;;;;4929710;29;20082;-75
2023/06/04 01:45:11;;;;;;;11.73;3.95;;;15.70;99.90;;;;;;4911184;29;20471;-75
2023/06/04 01:47:37;;;;;;;8.55;4.90;;;15.80;99.90;;;;;;4913485;29;20387;-75
2023/06/04 01:50:05;;;;;;;8.50;4.82;;;15.70;99.90;;;;;;4903464;29;20035;-74
2023/06/04 01:52:32;;;;;;;14.68;5.20;;;15.70;99.90;;;;;;4918393;29;20028;-76
2023/06/04 01:54:58;;;;;;;12.27;4.60;;;15.70;99.90;;;;;;4919556;29;20054;-73
2023/06/04 01:57:25;;;;;;;9.60;5.22;;;15.70;99.90;;;;;;4918574;29;20060;-74
2023/06/04 01:59:51;;;;;;;12.40;7.05;;;15.50;99.90;;;;;;4901473;29;20060;-75
2023/06/04 02:02:16;;;;;;;19.73;11.07;;;15.60;99.90;;;;;;4901658;29;20492;-73
2023/06/04 02:04:42;;;;;;;10.50;4.10;;;15.60;99.90;;;;;;4918301;29;20028;-76
2023/06/04 02:07:09;;;;;;;11.15;4.97;;;15.60;99.90;;;;;;4904537;29;20033;-73
2023/06/04 02:09:36;;;;;;;7.63;4.88;;;15.50;99.90;;;;;;4927290;29;20039;-78
2023/06/04 02:12:02;;;;;;;12.23;4.72;;;15.40;99.90;;;;;;4901419;29;20034;-78
2023/06/04 02:14:28;;;;;;;7.78;4.13;;;15.50;99.90;;;;;;4900903;29;20031;-76
2023/06/04 02:16:57;;;;;;;7.68;4.55;;;15.40;99.90;;;;;;4902286;29;20032;-75
2023/06/04 02:19:26;;;;;;;8.85;4.15;;;15.40;99.90;;;;;;4927808;29;20166;-75
2023/06/04 02:21:53;;;;;;;12.00;4.57;;;15.40;99.90;;;;;;4918088;29;20504;-77
2023/06/04 02:24:20;;;;;;;7.63;4.55;;;15.40;99.90;;;;;;4900523;29;20396;-77
2023/06/04 02:26:47;;;;;;;9.50;4.78;;;15.40;99.90;;;;;;4900834;29;20020;-76
2023/06/04 02:29:13;;;;;;;11.75;4.53;;;15.40;99.90;;;;;;4899105;29;20068;-77
2023/06/04 02:31:39;;;;;;;11.95;4.30;;;15.30;99.90;;;;;;4921143;29;20037;-74
2023/06/04 02:34:04;;;;;;;22.90;5.57;;;15.20;99.90;;;;;;4916591;29;20047;-75
2023/06/04 02:36:30;;;;;;;12.40;5.05;;;15.20;99.90;;;;;;4917510;29;20028;-78
2023/06/04 02:38:56;;;;;;;9.40;4.57;;;15.20;99.90;;;;;;4926199;29;20479;-77
2023/06/04 02:41:23;;;;;;;8.90;4.72;;;15.10;99.90;;;;;;4888268;29;20499;-75
2023/06/04 02:43:49;;;;;;;8.90;4.43;;;15.10;99.90;;;;;;4918045;29;20028;-76
2023/06/04 02:46:15;;;;;;;8.82;4.32;;;15.00;99.90;;;;;;4917384;29;20028;-74
2023/06/04 02:48:41;;;;;;;8.50;4.07;;;15.00;99.90;;;;;;4904643;29;20067;-75
2023/06/04 02:51:10;;;;;;;8.95;4.18;;;15.00;99.90;;;;;;4905815;29;20051;-74
2023/06/04 02:53:36;;;;;;;11.93;5.15;;;14.90;99.90;;;;;;4917622;29;20123;-74
2023/06/04 02:56:02;;;;;;;12.10;5.10;;;14.90;99.90;;;;;;4900104;29;20544;-77
2023/06/04 02:58:28;;;;;;;7.80;4.80;;;14.80;99.90;;;;;;4917406;29;20095;-73
2023/06/04 03:00:55;;;;;;;13.45;5.25;;;14.80;99.90;;;;;;4901380;29;20043;-77
2023/06/04 03:03:22;;;;;;;9.10;4.75;;;14.90;99.90;;;;;;4899802;29;20036;-75
2023/06/04 03:05:47;;;;;;;14.80;5.45;;;14.90;99.90;;;;;;4900552;29;20028;-77
2023/06/04 03:08:13;;;;;;;13.93;5.13;;;15.00;99.90;;;;;;4916882;29;20080;-73
2023/06/04 03:10:39;;;;;;;10.60;5.32;;;15.00;99.90;;;;;;4899799;29;20024;-74
2023/06/04 03:13:05;;;;;;;10.10;5.05;;;15.10;99.90;;;;;;4888725;29;20069;-77
2023/06/04 03:15:31;;;;;;;8.32;4.88;;;15.20;99.90;;;;;;4917303;29;20035;-77
2023/06/04 03:17:57;;;;;;;10.43;5.65;;;15.30;99.90;;;;;;4899909;29;20064;-74
2023/06/04 03:20:25;;;;;;;9.40;4.90;;;15.30;99.90;;;;;;4900777;29;20039;-73
2023/06/04 03:22:51;;;;;;;10.02;4.85;;;15.50;99.90;;;;;;4916986;29;20473;-74
2023/06/04 03:25:17;;;;;;;9.13;4.13;;;15.60;99.90;;;;;;4899861;29;20074;-73
2023/06/04 03:27:43;;;;;;;9.40;4.82;;;15.60;99.90;;;;;;4917181;29;20060;-77
2023/06/04 03:30:09;;;;;;;9.95;5.22;;;15.70;99.90;;;;;;4916722;29;20031;-74
2023/06/04 03:32:45;;;;;;;12.13;5.60;;;15.80;99.90;;;;;;4930889;29;20458;-76
2023/06/04 03:35:11;;;;;;;10.50;5.55;;;15.80;99.90;;;;;;4899605;29;20027;-76
2023/06/04 03:37:37;;;;;;;7.85;4.90;;;15.90;99.90;;;;;;4923653;29;20179;-73
2023/06/04 03:40:06;;;;;;;7.82;4.55;;;15.90;99.90;;;;;;4900739;29;20032;-75
2023/06/04 03:42:35;;;;;;;9.32;5.40;;;16.10;99.90;;;;;;4899766;29;20047;-76
2023/06/04 03:45:01;;;;;;;11.60;5.00;;;16.50;99.90;;;;;;4899648;29;20516;-75
2023/06/04 03:47:28;;;;;;;10.27;4.60;;;17.10;99.90;;;;;;4899339;29;20028;-75
2023/06/04 03:49:54;;;;;;;9.77;4.72;;;17.60;99.90;;;;;;4901301;29;20047;-76
2023/06/04 03:52:20;;;;;;;7.97;4.13;;;18.20;99.90;;;;;;4899325;29;20028;-74
2023/06/04 03:54:46;;;;;;;8.75;4.68;;;18.70;99.90;;;;;;4899727;29;20039;-74
2023/06/04 03:57:12;;;;;;;13.63;4.65;;;19.10;99.90;;;;;;4899203;29;20111;-75
2023/06/04 03:59:38;;;;;;;11.50;5.10;;;19.50;99.90;;;;;;4916428;29;20023;-77
2023/06/04 04:02:05;;;;;;;9.45;4.78;;;19.80;99.90;;;;;;4900125;29;20028;-77
2023/06/04 04:04:32;;;;;;;11.30;4.80;;;20.40;99.90;;;;;;4924722;29;20083;-77
2023/06/04 04:07:00;;;;;;;10.18;4.53;;;21.00;99.90;;;;;;4902787;29;20488;-73
2023/06/04 04:09:27;;;;;;;6.25;3.78;;;21.10;99.90;;;;;;4901960;29;20466;-76
2023/06/04 04:11:52;;;;;;;7.10;4.00;;;21.70;99.90;;;;;;4904466;29;20070;-74
2023/06/04 04:14:19;;;;;;;8.63;4.70;;;22.10;99.90;;;;;;4899192;29;20032;-77
2023/06/04 04:16:45;;;;;;;9.27;5.25;;;22.20;99.90;;;;;;4898912;29;20072;-77
2023/06/04 04:19:12;;;;;;;9.18;5.07;;;22.30;99.90;;;;;;4898953;29;20032;-75
2023/06/04 04:21:39;;;;;;;13.70;6.20;;;22.00;99.90;;;;;;4900666;29;20044;-76
2023/06/04 04:24:05;;;;;;;13.45;7.07;;;23.00;99.90;;;;;;4915848;29;20476;-77
2023/06/04 04:26:32;;;;;;;14.70;8.52;;;23.40;99.90;;;;;;4898995;29;20032;-77
2023/06/04 04:28:59;;;;;;;17.83;10.45;;;23.70;99.90;;;;;;4915886;29;20504;-77
2023/06/04 04:31:28;;;;;;;19.45;8.63;;;23.00;99.90;;;;;;4898914;29;20032;-77
2023/06/04 04:33:57;;;;;;;13.48;6.40;;;23.00;99.90;;;;;;4899121;29;20507;-77
2023/06/04 04:36:23;;;;;;;16.23;6.82;;;23.40;99.90;;;;;;4915814;29;20032;-73
2023/06/04 04:38:53;;;;;;;25.35;9.23;;;23.30;99.90;;;;;;4916154;29;20432;-77
2023/06/04 04:41:22;;;;;;;19.58;9.38;;;24.70;99.90;;;;;;4898787;29;20024;-74
2023/06/04 04:43:49;;;;;;;18.45;10.02;;;24.60;99.90;;;;;;4899117;29;20024;-75
2023/06/04 04:46:22;;;;;;;14.68;6.85;;;24.70;99.90;;;;;;4898684;29;20020;-76
2023/06/04 04:48:48;;;;;;;16.55;7.22;;;24.80;99.90;;;;;;4897613;29;20036;-75
2023/06/04 04:51:14;;;;;;;13.27;7.10;;;25.70;99.90;;;;;;4915745;29;20357;-77
2023/06/04 04:53:40;;;;;;;15.60;8.02;;;25.20;99.90;;;;;;4915438;29;20457;-77
2023/06/04 04:56:06;;;;;;;18.17;6.63;;;24.10;99.90;;;;;;4914788;29;20026;-74
2023/06/04 04:58:36;;;;;;;13.60;7.40;;;23.40;99.90;;;;;;4900935;29;20551;-77
2023/06/04 05:01:01;;;;;;;13.95;4.90;;;21.80;99.90;;;;;;4902328;29;20036;-77
2023/06/04 05:03:27;;;;;;;8.88;4.78;;;22.10;99.90;;;;;;4919221;29;20387;-74
2023/06/04 05:05:53;;;;;;;10.88;5.25;;;21.90;99.90;;;;;;4902104;29;20036;-74
2023/06/04 05:08:19;;;;;;;10.88;5.30;;;21.80;99.90;;;;;;4901860;29;20048;-74
2023/06/04 05:10:45;;;;;;;11.30;5.53;;;21.20;99.90;;;;;;4901958;29;20029;-75
2023/06/04 05:13:11;;;;;;;8.60;5.13;;;20.40;99.90;;;;;;4902387;29;20056;-76
2023/06/04 05:15:44;;;;;;;11.15;5.07;;;20.40;99.90;;;;;;4902284;29;20036;-76
2023/06/04 05:18:12;;;;;;;8.93;4.80;;;20.40;99.90;;;;;;4905885;29;20024;-77
2023/06/04 05:20:39;;;;;;;10.05;4.68;;;20.70;99.90;;;;;;4901570;29;20078;-74
2023/06/04 05:23:08;;;;;;;10.02;5.32;;;20.70;99.90;;;;;;4905529;29;20039;-74
2023/06/04 05:25:35;;;;;;;11.48;5.72;;;20.70;99.90;;;;;;4901376;29;20039;-76
2023/06/04 05:28:03;;;;;;;17.40;5.35;;;20.90;99.90;;;;;;4902074;29;20042;-74
2023/06/04 05:30:29;;;;;;;10.98;5.63;;;20.40;99.90;;;;;;4901978;29;20032;-77
2023/06/04 05:32:55;;;;;;;10.27;5.78;;;20.40;99.90;;;;;;4900468;29;20047;-77
2023/06/04 05:35:24;;;;;;;13.73;7.63;;;20.60;99.90;;;;;;4901633;29;20036;-74
2023/06/04 05:37:53;;;;;;;14.88;7.60;;;20.70;99.90;;;;;;4901380;29;20119;-75
2023/06/04 05:40:22;;;;;;;12.75;6.18;;;20.70;99.90;;;;;;4902007;29;20024;-77
2023/06/04 05:42:49;;;;;;;11.18;6.72;;;20.20;99.90;;;;;;4918504;29;20119;-77
2023/06/04 05:45:15;;;;;;;9.95;5.45;;;20.80;99.90;;;;;;4875918;29;20498;-75
2023/06/04 05:47:42;;;;;;;11.85;6.30;;;20.70;99.90;;;;;;4902948;29;20040;-77
2023/06/04 05:50:09;;;;;;;9.98;5.90;;;20.40;99.90;;;;;;4901571;29;20499;-73
2023/06/04 05:52:36;;;;;;;11.13;6.15;;;20.90;99.90;;;;;;4901627;29;20056;-77
2023/06/04 05:55:04;;;;;;;11.10;7.00;;;21.20;99.90;;;;;;4901677;29;20115;-75
2023/06/04 05:57:29;;;;;;;10.23;5.85;;;21.60;99.90;;;;;;4901850;29;20020;-77
2023/06/04 05:59:56;;;;;;;8.13;5.03;;;20.80;99.90;;;;;;4901352;29;20084;-74
2023/06/04 06:02:22;;;;;;;12.35;5.22;;;21.10;99.90;;;;;;4901720;29;20036;-77
2023/06/04 06:04:48;;;;;;;9.30;5.50;;;20.80;99.90;;;;;;4901369;29;20060;-77
2023/06/04 06:07:14;;;;;;;9.07;5.47;;;20.80;99.90;;;;;;4901669;29;20425;-77
2023/06/04 06:09:40;;;;;;;12.63;5.63;;;20.80;99.90;;;;;;4917843;29;20111;-77
2023/06/04 06:12:06;;;;;;;10.73;5.22;;;20.30;99.90;;;;;;4918379;29;20051;-74
2023/06/04 06:14:34;;;;;;;10.88;5.75;;;20.60;99.90;;;;;;4901159;29;20040;-77
2023/06/04 06:17:02;;;;;;;11.45;5.80;;;20.60;99.90;;;;;;4901113;29;20028;-76
2023/06/04 06:19:29;;;;;;;11.98;6.13;;;20.90;99.90;;;;;;4901210;29;20043;-74
2023/06/04 06:21:58;;;;;;;13.85;6.80;;;21.50;99.90;;;;;;4885572;29;20036;-76
2023/06/04 06:24:25;;;;;;;10.07;5.40;;;21.80;99.90;;;;;;4901148;29;20050;-76
2023/06/04 06:26:51;;;;;;;8.57;5.13;;;21.90;99.90;;;;;;4900795;29;20035;-76
2023/06/04 06:29:17;;;;;;;9.10;5.10;;;22.30;99.90;;;;;;4918071;29;20028;-76
2023/06/04 06:31:43;;;;;;;8.82;5.53;;;22.40;99.90;;;;;;4900848;29;20028;-73
2023/06/04 06:34:09;;;;;;;9.00;4.88;;;22.60;99.90;;;;;;4917921;29;20507;-74
2023/06/04 06:36:35;;;;;;;9.30;5.57;;;22.90;99.90;;;;;;4917695;29;20036;-74
2023/06/04 06:39:01;;;;;;;11.30;5.55;;;22.90;99.90;;;;;;4917670;29;20024;-74
2023/06/04 06:41:27;;;;;;;7.53;4.38;;;22.40;99.90;;;;;;4901047;29;20059;-74
2023/06/04 06:43:52;;;;;;;9.05;5.45;;;22.70;99.90;;;;;;4917748;29;20114;-77
2023/06/04 06:46:18;;;;;;;8.73;5.13;;;22.70;99.90;;;;;;4917537;29;20380;-75
2023/06/04 06:48:45;;;;;;;13.05;4.93;;;22.70;99.90;;;;;;4917751;29;20039;-73
2023/06/04 06:51:11;;;;;;;13.40;5.90;;;22.70;99.90;;;;;;4917652;29;20068;-74
2023/06/04 06:53:37;;;;;;;10.52;5.78;;;23.00;99.90;;;;;;4917475;29;20036;-76
2023/06/04 06:56:03;;;;;;;11.85;6.68;;;23.30;99.90;;;;;;4917757;29;20111;-75
2023/06/04 06:58:28;;;;;;;10.13;5.68;;;23.50;99.90;;;;;;4917629;29;20506;-75
2023/06/04 07:00:56;;;;;;;19.15;9.90;;;23.80;99.90;;;;;;4917540;29;20095;-76
2023/06/04 07:03:22;;;;;;;10.18;6.25;;;23.80;99.90;;;;;;4917399;29;20036;-74
2023/06/04 07:05:48;;;;;;;9.18;5.43;;;23.80;99.90;;;;;;4917057;29;20096;-74
2023/06/04 07:08:14;;;;;;;10.27;6.32;;;23.60;99.90;;;;;;4917227;29;20067;-75
2023/06/04 07:10:40;;;;;;;11.55;6.75;;;23.80;99.90;;;;;;4917181;29;20024;-77
2023/06/04 07:13:06;;;;;;;12.43;5.47;;;23.60;99.90;;;;;;4917295;29;20152;-76
2023/06/04 07:15:31;;;;;;;16.05;6.47;;;23.70;99.90;;;;;;4916988;29;20059;-76
2023/06/04 07:17:57;;;;;;;9.30;5.75;;;24.00;99.90;;;;;;4917217;29;20032;-75
2023/06/04 07:20:23;;;;;;;14.43;5.75;;;24.10;99.90;;;;;;4916308;29;20150;-75
2023/06/04 07:22:49;;;;;;;7.97;5.32;;;24.30;99.90;;;;;;4917427;29;20032;-78
2023/06/04 07:25:15;;;;;;;10.73;6.25;;;24.30;99.90;;;;;;4916724;29;20032;-74
2023/06/04 07:27:41;;;;;;;19.00;6.65;;;24.30;99.90;;;;;;4917264;29;20024;-74
2023/06/04 07:30:07;;;;;;;8.73;5.15;;;24.20;99.90;;;;;;4899718;29;20032;-77
2023/06/04 07:32:33;;;;;;;14.43;6.10;;;24.50;99.90;;;;;;4916730;29;20028;-75
2023/06/04 07:34:59;;;;;;;10.32;5.13;;;24.60;99.90;;;;;;4917092;29;20050;-74
2023/06/04 07:37:25;;;;;;;8.35;5.20;;;24.50;99.90;;;;;;4916854;29;20035;-74
2023/06/04 07:39:51;;;;;;;12.57;5.63;;;24.30;99.90;;;;;;4916749;29;20067;-72
2023/06/04 07:42:16;;;;;;;11.45;5.72;;;24.00;99.90;;;;;;4916885;29;20024;-75
2023/06/04 07:44:42;;;;;;;22.80;6.13;;;24.00;99.90;;;;;;4916544;29;20491;-76
2023/06/04 07:47:08;;;;;;;8.98;5.05;;;23.90;99.90;;;;;;4916692;29;20024;-73
2023/06/04 07:49:34;;;;;;;9.73;5.10;;;24.20;99.90;;;;;;4916577;29;20039;-74
2023/06/04 07:52:00;;;;;;;10.95;5.95;;;23.90;99.90;;;;;;4916507;29;20406;-74
2023/06/04 07:54:26;;;;;;;10.57;5.70;;;24.10;99.90;;;;;;4899178;29;20128;-75
2023/06/04 07:56:55;;;;;;;12.77;5.22;;;24.00;99.90;;;;;;4916489;29;20101;-72
2023/06/04 07:59:24;;;;;;;11.77;4.88;;;24.00;99.90;;;;;;4899197;29;20538;-74
2023/06/04 08:01:53;;;;;;;9.10;6.03;;;24.10;99.90;;;;;;4909349;29;20432;-73
2023/06/04 08:04:19;;;;;;;10.15;5.63;;;23.30;99.90;;;;;;4916078;29;20480;-73
2023/06/04 08:06:46;;;;;;;10.13;5.85;;;24.00;99.90;;;;;;4916298;29;20071;-73
2023/06/04 08:09:13;;;;;;;17.85;6.53;;;24.30;99.90;;;;;;4915910;29;20052;-72
2023/06/04 08:11:41;;;;;;;13.10;6.28;;;24.70;99.90;;;;;;4916369;29;20492;-73
2023/06/04 08:14:06;;;;;;;10.95;5.43;;;24.80;99.90;;;;;;4916001;29;20040;-74
2023/06/04 08:16:32;;;;;;;11.13;6.35;;;24.60;99.90;;;;;;4916183;29;20603;-73
2023/06/04 08:18:58;;;;;;;14.73;5.95;;;24.80;99.90;;;;;;4915982;29;20063;-77
2023/06/04 08:21:28;;;;;;;8.02;5.28;;;24.70;99.90;;;;;;4916086;29;20416;-76
2023/06/04 08:23:54;;;;;;;10.82;5.45;;;24.40;99.90;;;;;;4916057;29;20391;-74
2023/06/04 08:26:20;;;;;;;12.23;5.63;;;24.60;99.90;;;;;;4916068;29;20024;-78
2023/06/04 08:28:49;;;;;;;10.45;5.25;;;24.70;99.90;;;;;;4898964;29;20040;-79
2023/06/04 08:31:16;;;;;;;10.65;5.28;;;24.80;99.90;;;;;;4898112;29;20079;-78
2023/06/04 08:33:44;;;;;;;8.70;5.03;;;25.00;99.90;;;;;;4903669;29;20043;-76
2023/06/04 08:36:10;;;;;;;8.60;4.32;;;24.40;99.90;;;;;;4883077;29;20369;-76
2023/06/04 08:38:36;;;;;;;7.90;4.10;;;24.00;99.90;;;;;;4916048;29;20080;-76
2023/06/04 08:41:27;;;;;;;7.25;4.60;;;24.40;99.90;;;;;;4907808;29;20091;-75
2023/06/04 08:43:56;;;;;;;7.28;4.18;;;24.60;99.90;;;;;;4915820;29;20093;-75
2023/06/04 08:46:23;;;;;;;9.35;4.57;;;;;;;;;;4915917;29;20020;-73
2023/06/04 08:48:50;;;;;;;5.50;3.72;;;25.00;99.90;;;;;;4915243;29;20043;-73
2023/06/04 08:51:17;;;;;;;6.70;3.83;;;25.30;99.90;;;;;;4915645;29;20059;-74
2023/06/04 08:53:47;;;;;;;5.75;3.00;;;25.10;99.90;;;;;;4916013;29;20140;-73
2023/06/04 08:56:13;;;;;;;6.57;3.83;;;24.90;99.90;;;;;;4915617;29;20024;-75
2023/06/04 08:58:40;;;;;;;7.47;3.53;;;24.80;99.90;;;;;;4915987;29;20515;-78
2023/06/04 09:01:07;;;;;;;7.50;3.45;;;24.10;99.90;;;;;;4915566;29;20107;-74
2023/06/04 09:03:33;;;;;;;5.93;3.28;;;24.70;99.90;;;;;;4915914;29;20028;-74
2023/06/04 09:06:00;;;;;;;7.00;3.72;;;24.80;99.90;;;;;;4915690;29;20539;-73
2023/06/04 09:08:31;;;;;;;5.93;3.15;;;24.30;99.90;;;;;;4915528;29;20044;-72
2023/06/04 09:10:57;;;;;;;7.43;3.73;;;24.70;99.90;;;;;;4898502;29;20091;-73
2023/06/04 09:13:28;;;;;;;7.25;3.40;;;25.10;99.90;;;;;;4915465;29;20373;-73
2023/06/04 09:16:05;;;;;;;5.50;3.40;;;24.90;99.90;;;;;;4915451;29;20039;-75
2023/06/04 09:18:31;;;;;;;8.15;3.60;;;25.20;99.90;;;;;;4915318;29;20059;-74
2023/06/04 09:21:05;;;;;;;6.53;3.70;;;25.40;99.90;;;;;;4915677;29;20016;-75
2023/06/04 09:23:44;;;;;;;5.90;3.45;;;;;;;;;;4915404;29;20084;-74
2023/06/04 09:26:10;;;;;;;5.70;3.47;;;25.50;99.90;;;;;;4915206;29;20485;-74
2023/06/04 09:28:43;;;;;;;4.22;2.72;;;25.40;99.90;;;;;;4915384;29;20032;-73
2023/06/04 09:31:15;;;;;;;4.95;3.40;;;25.50;99.90;;;;;;4915576;29;20396;-75
2023/06/04 09:33:49;;;;;;;6.43;3.20;;;25.00;99.90;;;;;;4903140;29;20054;-74
2023/06/04 09:36:16;;;;;;;4.25;3.08;;;25.20;99.90;;;;;;4915513;29;20032;-76
2023/06/04 09:38:42;;;;;;;6.45;3.85;;;25.50;99.90;;;;;;4915055;29;20028;-75
2023/06/04 09:41:13;;;;;;;9.25;3.95;;;25.40;99.90;;;;;;4897963;29;20064;-75
2023/06/04 09:43:40;;;;;;;5.60;3.40;;;25.80;99.90;;;;;;4917052;29;20055;-74
2023/06/04 09:46:14;;;;;;;7.00;4.28;;;25.60;99.90;;;;;;4899324;29;20043;-74
2023/06/04 09:48:42;;;;;;;5.63;3.72;;;25.70;99.90;;;;;;4909054;29;20028;-74
2023/06/04 09:51:12;;;;;;;7.72;3.50;;;25.70;99.90;;;;;;4918541;29;20107;-75
2023/06/04 09:53:39;;;;;;;5.40;3.35;;;25.70;99.90;;;;;;4918679;29;20040;-73
2023/06/04 09:56:10;;;;;;;5.03;3.58;;;25.60;99.90;;;;;;4918469;29;20144;-74
2023/06/04 09:58:38;;;;;;;7.38;3.88;;;25.60;99.90;;;;;;4918807;29;20027;-73
2023/06/04 10:01:06;;;;;;;6.32;3.90;;;25.90;99.90;;;;;;4918461;29;20384;-73
2023/06/04 10:03:34;;;;;;;6.60;3.45;;;25.60;99.90;;;;;;4918815;29;20036;-75
2023/06/04 10:06:03;;;;;;;7.85;3.65;;;25.80;99.90;;;;;;4912778;29;20468;-76
2023/06/04 10:08:30;;;;;;;10.38;4.32;;;;;;;;;;4911429;29;20053;-73
2023/06/04 10:11:01;;;;;;;5.72;3.22;;;26.10;99.90;;;;;;4918309;29;20040;-74
2023/06/04 10:13:30;;;;;;;7.17;3.90;;;26.20;99.90;;;;;;4917905;29;20044;-73
2023/06/04 10:16:00;;;;;;;4.38;3.42;;;26.00;99.90;;;;;;4918177;29;20369;-75
2023/06/04 10:18:28;;;;;;;7.65;3.78;;;26.10;99.90;;;;;;4917840;29;20800;-74
2023/06/04 10:20:57;;;;;;;8.10;3.70;;;26.10;99.90;;;;;;4918438;29;20092;-74
2023/06/04 10:23:24;;;;;;;8.35;4.40;;;26.00;99.90;;;;;;4918092;29;20845;-73
2023/06/04 10:25:52;;;;;;;11.55;5.00;;;25.90;99.90;;;;;;4900885;29;20551;-72
2023/06/04 10:28:22;;;;;;;6.07;3.60;;;26.10;99.90;;;;;;4917973;29;20028;-75
2023/06/04 10:30:50;;;;;;;9.18;3.90;;;26.20;99.90;;;;;;4917910;29;20028;-72
2023/06/04 10:33:19;;;;;;;5.15;3.80;;;25.70;99.90;;;;;;4917845;29;20072;-75
2023/06/04 10:35:45;;;;;;;9.93;4.70;;;25.40;99.90;;;;;;4917829;29;20472;-74
2023/06/04 10:38:18;;;;;;;8.40;4.13;;;25.70;99.90;;;;;;4917907;29;20024;-73
2023/06/04 10:40:44;;;;;;;7.82;3.80;;;25.90;99.90;;;;;;4917967;29;20114;-74
2023/06/04 10:43:12;;;;;;;5.35;3.60;;;26.00;99.90;;;;;;4917730;29;20505;-73
2023/06/04 10:45:40;;;;;;;8.05;3.80;;;25.80;99.90;;;;;;4917814;29;20447;-76
2023/06/04 10:48:10;;;;;;;6.10;3.60;;;25.90;99.90;;;;;;4917439;29;20397;-73
2023/06/04 10:50:49;;;;;;;10.85;3.58;;;25.90;99.90;;;;;;4917647;29;20115;-74
2023/06/04 10:53:15;;;;;;;5.15;3.38;;;26.00;99.90;;;;;;4910805;29;20480;-73
2023/06/04 10:55:46;;;;;;;6.35;3.33;;;25.90;99.90;;;;;;4910492;29;20064;-75
2023/06/04 10:58:12;;;;;;;4.50;3.50;;;25.80;99.90;;;;;;4917593;29;20047;-75
2023/06/04 11:00:40;;;;;;;6.15;3.47;;;26.00;99.90;;;;;;4917281;29;20021;-75
2023/06/04 11:03:07;;;;;;;6.93;3.58;;;25.90;99.90;;;;;;4917592;29;20055;-74
2023/06/04 11:05:40;;;;;;;7.32;4.07;;;26.10;99.90;;;;;;4917383;29;20083;-75
2023/06/04 11:08:06;;;;;;;5.43;3.75;;;26.10;99.90;;;;;;4917349;29;20115;-74
2023/06/04 11:10:33;;;;;;;4.63;3.70;;;25.90;99.90;;;;;;4916917;29;20035;-74
2023/06/04 11:12:59;;;;;;;9.32;4.38;;;25.70;99.90;;;;;;4917091;29;20087;-73
2023/06/04 11:15:25;;;;;;;6.13;3.35;;;25.60;99.90;;;;;;4900084;29;20123;-74
2023/06/04 11:17:58;;;;;;;6.88;3.30;;;25.60;99.90;;;;;;4916826;29;20028;-76
2023/06/04 11:20:24;;;;;;;5.25;3.72;;;25.60;99.90;;;;;;4917202;29;20388;-74
2023/06/04 11:22:57;;;;;;;5.45;3.60;;;25.60;99.90;;;;;;4917171;29;20032;-73
2023/06/04 11:25:28;;;;;;;5.05;3.40;;;25.80;99.90;;;;;;4917061;29;20254;-74
2023/06/04 11:27:55;;;;;;;5.75;3.80;;;25.60;99.90;;;;;;4916851;29;20050;-76
2023/06/04 11:30:21;;;;;;;8.68;3.58;;;25.70;99.90;;;;;;4916676;29;20024;-76
2023/06/04 11:32:48;;;;;;;7.68;3.33;;;25.70;99.90;;;;;;4912535;29;20039;-74
2023/06/04 11:35:13;;;;;;;4.93;3.40;;;25.80;99.90;;;;;;4898723;29;20043;-73
2023/06/04 11:37:40;;;;;;;5.60;3.70;;;25.70;99.90;;;;;;4912623;29;20028;-77
2023/06/04 11:40:26;;;;;;;6.57;3.40;;;25.70;99.90;;;;;;4916413;29;20506;-75
2023/06/04 11:42:53;;;;;;;5.97;3.78;;;25.70;99.90;;;;;;4916635;29;20039;-73
2023/06/04 11:45:22;;;;;;;6.47;4.00;;;25.80;99.90;;;;;;4916732;29;20046;-75
2023/06/04 11:47:55;;;;;;;8.60;4.30;;;25.80;99.90;;;;;;4916345;29;20044;-74
2023/06/04 11:50:27;;;;;;;5.47;4.28;;;25.60;99.90;;;;;;4916632;29;20507;-73
2023/06/04 11:52:54;;;;;;;12.30;4.60;;;25.70;99.90;;;;;;4916122;29;20024;-74
2023/06/04 11:55:24;;;;;;;5.88;3.83;;;25.80;99.90;;;;;;4916679;29;20024;-74
2023/06/04 11:57:50;;;;;;;6.35;3.97;;;25.40;99.90;;;;;;4883669;29;20120;-74
2023/06/04 12:00:18;;;;;;;5.72;3.65;;;25.40;99.90;;;;;;4899032;29;20044;-74
2023/06/04 12:02:52;;;;;;;10.10;4.45;;;25.30;99.90;;;;;;4899522;29;20036;-73
2023/06/04 12:05:19;;;;;;;4.68;3.30;;;25.30;99.90;;;;;;4915938;29;20531;-74
2023/06/04 12:07:52;;;;;;;5.82;3.70;;;25.50;99.90;;;;;;4916161;29;20037;-72
2023/06/04 12:10:21;;;;;;;5.50;3.95;;;25.60;99.90;;;;;;4915954;29;20025;-75
2023/06/04 12:12:54;;;;;;;7.30;3.80;;;25.40;99.90;;;;;;4916178;29;20032;-74
2023/06/04 12:15:20;;;;;;;5.15;3.65;;;25.20;99.90;;;;;;4916320;29;20032;-75
2023/06/04 12:18:04;;;;;;;8.65;5.05;;;25.50;99.90;;;;;;4915775;29;20107;-74
2023/06/04 12:20:35;;;;;;;12.07;5.18;;;25.70;99.90;;;;;;4916292;29;20043;-74
2023/06/04 12:23:02;;;;;;;10.82;4.47;;;25.70;99.90;;;;;;4915829;29;20035;-74
2023/06/04 12:25:30;;;;;;;4.68;3.70;;;25.60;99.90;;;;;;4915906;29;20024;-74
2023/06/04 12:27:56;;;;;;;5.30;3.70;;;25.60;99.90;;;;;;4915803;29;20067;-73
2023/06/04 12:30:22;;;;;;;6.35;3.95;;;25.60;99.90;;;;;;4915936;29;20032;-74
2023/06/04 12:32:50;;;;;;;6.90;4.30;;;25.70;99.90;;;;;;4915695;29;20039;-76
2023/06/04 12:35:16;;;;;;;5.93;3.78;;;25.80;99.90;;;;;;4915795;29;20036;-74
2023/06/04 12:37:42;;;;;;;6.18;3.78;;;25.80;99.90;;;;;;4915959;29;20035;-74
2023/06/04 12:40:08;;;;;;;5.80;3.65;;;25.60;99.90;;;;;;4916108;29;20025;-75
2023/06/04 12:42:35;;;;;;;6.57;3.47;;;25.60;99.90;;;;;;4915773;29;20055;-74
2023/06/04 12:45:00;;;;;;;10.13;3.60;;;25.60;99.90;;;;;;4915674;29;20033;-74
2023/06/04 12:47:26;;;;;;;7.20;2.97;;;25.70;99.90;;;;;;4915614;29;20028;-75
2023/06/04 12:49:52;;;;;;;6.35;4.22;;;25.60;99.90;;;;;;4898093;29;20040;-74